sensor_id;sensor_type;location;lat;lon;timestamp;P1;durP1;ratioP1;P2;durP2;ratioP2
77612;SDS011;66777;52.282;5.960;2023-03-11T00:00:20;3.00;;;1.15;;
77612;SDS011;66777;52.282;5.960;2023-03-11T00:02:48;4.65;;;1.85;;
77612;SDS011;66777;52.282;5.960;2023-03-11T00:05:16;7.53;;;2.13;;
77612;SDS011;66777;52.282;5.960;2023-03-11T00:07:44;3.80;;;1.55;;
77612;SDS011;66777;52.282;5.960;2023-03-11T00:10:24;6.25;;;1.88;;
77612;SDS011;66777;52.282;5.960;2023-03-11T00:12:53;6.35;;;2.20;;
77612;SDS011;66777;52.282;5.960;2023-03-11T00:15:18;5.18;;;1.40;;
77612;SDS011;66777;52.282;5.960;2023-03-11T00:17:48;5.43;;;1.48;;
77612;SDS011;66777;52.282;5.960;2023-03-11T00:20:17;6.22;;;1.92;;
77612;SDS011;66777;52.282;5.960;2023-03-11T00:22:45;5.45;;;1.67;;
77612;SDS011;66777;52.282;5.960;2023-03-11T00:25:11;5.70;;;1.75;;
77612;SDS011;66777;52.282;5.960;2023-03-11T00:27:38;5.47;;;2.22;;
77612;SDS011;66777;52.282;5.960;2023-03-11T00:30:04;4.20;;;1.55;;
77612;SDS011;66777;52.282;5.960;2023-03-11T00:32:31;7.60;;;2.00;;
77612;SDS011;66777;52.282;5.960;2023-03-11T00:34:57;9.40;;;2.33;;
77612;SDS011;66777;52.282;5.960;2023-03-11T00:37:22;6.20;;;1.83;;
77612;SDS011;66777;52.282;5.960;2023-03-11T00:39:49;7.45;;;1.27;;
77612;SDS011;66777;52.282;5.960;2023-03-11T00:42:15;4.60;;;1.38;;
77612;SDS011;66777;52.282;5.960;2023-03-11T00:44:40;5.97;;;1.88;;
77612;SDS011;66777;52.282;5.960;2023-03-11T00:47:07;6.75;;;1.45;;
77612;SDS011;66777;52.282;5.960;2023-03-11T00:49:35;2.53;;;1.05;;
77612;SDS011;66777;52.282;5.960;2023-03-11T00:52:01;7.65;;;1.40;;
77612;SDS011;66777;52.282;5.960;2023-03-11T00:54:27;2.72;;;1.17;;
77612;SDS011;66777;52.282;5.960;2023-03-11T00:56:54;7.70;;;1.70;;
77612;SDS011;66777;52.282;5.960;2023-03-11T00:59:20;3.78;;;1.35;;
77612;SDS011;66777;52.282;5.960;2023-03-11T01:01:46;5.15;;;1.60;;
77612;SDS011;66777;52.282;5.960;2023-03-11T01:04:12;4.60;;;1.65;;
77612;SDS011;66777;52.282;5.960;2023-03-11T01:06:38;3.38;;;1.30;;
77612;SDS011;66777;52.282;5.960;2023-03-11T01:09:04;9.98;;;2.28;;
77612;SDS011;66777;52.282;5.960;2023-03-11T01:11:30;7.07;;;1.17;;
77612;SDS011;66777;52.282;5.960;2023-03-11T01:13:57;4.47;;;1.15;;
77612;SDS011;66777;52.282;5.960;2023-03-11T01:16:23;5.78;;;1.30;;
77612;SDS011;66777;52.282;5.960;2023-03-11T01:18:49;11.73;;;2.08;;
77612;SDS011;66777;52.282;5.960;2023-03-11T01:21:15;5.68;;;1.10;;
77612;SDS011;66777;52.282;5.960;2023-03-11T01:23:41;8.95;;;1.67;;
77612;SDS011;66777;52.282;5.960;2023-03-11T01:26:07;5.78;;;1.10;;
77612;SDS011;66777;52.282;5.960;2023-03-11T01:28:33;8.07;;;1.60;;
77612;SDS011;66777;52.282;5.960;2023-03-11T01:30:59;3.60;;;1.45;;
77612;SDS011;66777;52.282;5.960;2023-03-11T01:33:25;8.85;;;1.50;;
77612;SDS011;66777;52.282;5.960;2023-03-11T01:35:51;4.18;;;1.23;;
77612;SDS011;66777;52.282;5.960;2023-03-11T01:38:17;5.65;;;1.30;;
77612;SDS011;66777;52.282;5.960;2023-03-11T01:40:46;3.75;;;1.08;;
77612;SDS011;66777;52.282;5.960;2023-03-11T01:46:15;2.92;;;1.15;;
77612;SDS011;66777;52.282;5.960;2023-03-11T01:48:52;3.25;;;1.20;;
77612;SDS011;66777;52.282;5.960;2023-03-11T01:51:29;3.50;;;1.00;;
77612;SDS011;66777;52.282;5.960;2023-03-11T01:53:58;2.05;;;0.93;;
77612;SDS011;66777;52.282;5.960;2023-03-11T01:56:28;2.20;;;1.10;;
77612;SDS011;66777;52.282;5.960;2023-03-11T01:58:54;3.30;;;1.00;;
77612;SDS011;66777;52.282;5.960;2023-03-11T02:01:20;1.95;;;0.90;;
77612;SDS011;66777;52.282;5.960;2023-03-11T02:03:47;5.88;;;1.00;;
77612;SDS011;66777;52.282;5.960;2023-03-11T02:06:15;2.33;;;0.95;;
77612;SDS011;66777;52.282;5.960;2023-03-11T02:08:44;5.22;;;1.45;;
77612;SDS011;66777;52.282;5.960;2023-03-11T02:11:12;5.60;;;1.38;;
77612;SDS011;66777;52.282;5.960;2023-03-11T02:13:47;6.97;;;1.50;;
77612;SDS011;66777;52.282;5.960;2023-03-11T02:16:15;10.10;;;1.50;;
77612;SDS011;66777;52.282;5.960;2023-03-11T02:18:42;4.10;;;1.50;;
77612;SDS011;66777;52.282;5.960;2023-03-11T02:23:44;3.35;;;1.27;;
77612;SDS011;66777;52.282;5.960;2023-03-11T02:26:38;8.52;;;1.30;;
77612;SDS011;66777;52.282;5.960;2023-03-11T02:29:20;6.35;;;1.48;;
77612;SDS011;66777;52.282;5.960;2023-03-11T02:31:48;2.80;;;1.13;;
77612;SDS011;66777;52.282;5.960;2023-03-11T02:34:17;4.22;;;1.10;;
77612;SDS011;66777;52.282;5.960;2023-03-11T02:36:55;3.95;;;1.50;;
77612;SDS011;66777;52.282;5.960;2023-03-11T02:39:34;2.42;;;0.95;;
77612;SDS011;66777;52.282;5.960;2023-03-11T02:42:06;7.60;;;1.27;;
77612;SDS011;66777;52.282;5.960;2023-03-11T02:45:10;5.68;;;1.10;;
77612;SDS011;66777;52.282;5.960;2023-03-11T02:47:37;5.28;;;1.25;;
77612;SDS011;66777;52.282;5.960;2023-03-11T02:50:05;2.67;;;1.05;;
77612;SDS011;66777;52.282;5.960;2023-03-11T02:52:35;11.02;;;2.25;;
77612;SDS011;66777;52.282;5.960;2023-03-11T02:55:01;9.20;;;1.48;;
77612;SDS011;66777;52.282;5.960;2023-03-11T02:57:28;3.80;;;1.17;;
77612;SDS011;66777;52.282;5.960;2023-03-11T02:59:54;4.43;;;1.23;;
77612;SDS011;66777;52.282;5.960;2023-03-11T03:02:20;6.55;;;1.40;;
77612;SDS011;66777;52.282;5.960;2023-03-11T03:04:46;4.30;;;1.42;;
77612;SDS011;66777;52.282;5.960;2023-03-11T03:07:12;3.67;;;1.30;;
77612;SDS011;66777;52.282;5.960;2023-03-11T03:09:38;7.40;;;2.17;;
77612;SDS011;66777;52.282;5.960;2023-03-11T03:12:04;3.55;;;1.50;;
77612;SDS011;66777;52.282;5.960;2023-03-11T03:14:30;4.10;;;1.13;;
77612;SDS011;66777;52.282;5.960;2023-03-11T03:16:57;11.85;;;1.92;;
77612;SDS011;66777;52.282;5.960;2023-03-11T03:19:24;2.42;;;1.20;;
77612;SDS011;66777;52.282;5.960;2023-03-11T03:21:49;6.03;;;1.45;;
77612;SDS011;66777;52.282;5.960;2023-03-11T03:24:15;4.93;;;1.73;;
77612;SDS011;66777;52.282;5.960;2023-03-11T03:26:41;4.70;;;1.73;;
77612;SDS011;66777;52.282;5.960;2023-03-11T03:29:09;5.82;;;1.50;;
77612;SDS011;66777;52.282;5.960;2023-03-11T03:31:35;8.80;;;1.50;;
77612;SDS011;66777;52.282;5.960;2023-03-11T03:34:01;11.48;;;1.42;;
77612;SDS011;66777;52.282;5.960;2023-03-11T03:36:27;9.77;;;2.17;;
77612;SDS011;66777;52.282;5.960;2023-03-11T03:38:54;3.42;;;1.20;;
77612;SDS011;66777;52.282;5.960;2023-03-11T03:41:20;4.50;;;1.42;;
77612;SDS011;66777;52.282;5.960;2023-03-11T03:43:47;12.13;;;1.58;;
77612;SDS011;66777;52.282;5.960;2023-03-11T03:46:13;3.28;;;1.48;;
77612;SDS011;66777;52.282;5.960;2023-03-11T03:48:40;3.53;;;1.38;;
77612;SDS011;66777;52.282;5.960;2023-03-11T03:51:10;5.03;;;1.35;;
77612;SDS011;66777;52.282;5.960;2023-03-11T03:53:37;4.57;;;1.33;;
77612;SDS011;66777;52.282;5.960;2023-03-11T03:56:07;3.78;;;1.52;;
77612;SDS011;66777;52.282;5.960;2023-03-11T03:58:40;3.10;;;1.55;;
77612;SDS011;66777;52.282;5.960;2023-03-11T04:01:06;5.80;;;1.60;;
77612;SDS011;66777;52.282;5.960;2023-03-11T04:03:33;6.45;;;1.33;;
77612;SDS011;66777;52.282;5.960;2023-03-11T04:06:10;8.73;;;1.77;;
77612;SDS011;66777;52.282;5.960;2023-03-11T04:08:41;2.50;;;1.05;;
77612;SDS011;66777;52.282;5.960;2023-03-11T04:11:07;12.63;;;1.65;;
77612;SDS011;66777;52.282;5.960;2023-03-11T04:13:33;3.45;;;1.35;;
77612;SDS011;66777;52.282;5.960;2023-03-11T04:16:04;5.68;;;1.30;;
77612;SDS011;66777;52.282;5.960;2023-03-11T04:18:31;3.85;;;1.63;;
77612;SDS011;66777;52.282;5.960;2023-03-11T04:20:57;4.47;;;1.50;;
77612;SDS011;66777;52.282;5.960;2023-03-11T04:23:24;4.93;;;1.33;;
77612;SDS011;66777;52.282;5.960;2023-03-11T04:25:49;2.85;;;1.83;;
77612;SDS011;66777;52.282;5.960;2023-03-11T04:28:15;3.10;;;1.23;;
77612;SDS011;66777;52.282;5.960;2023-03-11T04:30:41;4.25;;;1.60;;
77612;SDS011;66777;52.282;5.960;2023-03-11T04:33:07;3.95;;;1.65;;
77612;SDS011;66777;52.282;5.960;2023-03-11T04:35:33;8.63;;;1.20;;
77612;SDS011;66777;52.282;5.960;2023-03-11T04:38:01;9.27;;;2.22;;
77612;SDS011;66777;52.282;5.960;2023-03-11T04:40:27;3.63;;;1.40;;
77612;SDS011;66777;52.282;5.960;2023-03-11T04:42:54;3.30;;;1.27;;
77612;SDS011;66777;52.282;5.960;2023-03-11T04:45:22;2.85;;;1.17;;
77612;SDS011;66777;52.282;5.960;2023-03-11T04:47:48;3.35;;;1.08;;
77612;SDS011;66777;52.282;5.960;2023-03-11T04:50:15;3.35;;;1.15;;
77612;SDS011;66777;52.282;5.960;2023-03-11T04:52:41;10.38;;;1.27;;
77612;SDS011;66777;52.282;5.960;2023-03-11T04:55:07;8.50;;;1.00;;
77612;SDS011;66777;52.282;5.960;2023-03-11T04:57:34;5.72;;;1.30;;
77612;SDS011;66777;52.282;5.960;2023-03-11T05:00:00;13.20;;;1.25;;
77612;SDS011;66777;52.282;5.960;2023-03-11T05:02:26;8.82;;;1.50;;
77612;SDS011;66777;52.282;5.960;2023-03-11T05:04:52;10.40;;;1.02;;
77612;SDS011;66777;52.282;5.960;2023-03-11T05:07:17;5.72;;;1.17;;
77612;SDS011;66777;52.282;5.960;2023-03-11T05:09:43;5.13;;;1.75;;
77612;SDS011;66777;52.282;5.960;2023-03-11T05:12:12;2.10;;;1.00;;
77612;SDS011;66777;52.282;5.960;2023-03-11T05:14:38;2.17;;;0.93;;
77612;SDS011;66777;52.282;5.960;2023-03-11T05:17:05;6.70;;;1.13;;
77612;SDS011;66777;52.282;5.960;2023-03-11T05:19:30;3.58;;;1.35;;
77612;SDS011;66777;52.282;5.960;2023-03-11T05:21:58;6.05;;;1.50;;
77612;SDS011;66777;52.282;5.960;2023-03-11T05:24:27;3.55;;;1.00;;
77612;SDS011;66777;52.282;5.960;2023-03-11T05:26:54;6.78;;;1.45;;
77612;SDS011;66777;52.282;5.960;2023-03-11T05:29:21;4.63;;;1.13;;
77612;SDS011;66777;52.282;5.960;2023-03-11T05:31:46;4.65;;;1.67;;
77612;SDS011;66777;52.282;5.960;2023-03-11T05:34:13;4.20;;;1.13;;
77612;SDS011;66777;52.282;5.960;2023-03-11T05:36:39;3.88;;;1.27;;
77612;SDS011;66777;52.282;5.960;2023-03-11T05:39:06;3.30;;;1.33;;
77612;SDS011;66777;52.282;5.960;2023-03-11T05:41:33;3.40;;;1.63;;
77612;SDS011;66777;52.282;5.960;2023-03-11T05:43:58;2.58;;;0.95;;
77612;SDS011;66777;52.282;5.960;2023-03-11T05:46:24;4.70;;;1.67;;
77612;SDS011;66777;52.282;5.960;2023-03-11T05:48:50;3.15;;;1.05;;
77612;SDS011;66777;52.282;5.960;2023-03-11T05:51:16;2.30;;;1.08;;
77612;SDS011;66777;52.282;5.960;2023-03-11T05:53:42;3.75;;;1.35;;
77612;SDS011;66777;52.282;5.960;2023-03-11T05:56:13;1.63;;;0.80;;
77612;SDS011;66777;52.282;5.960;2023-03-11T05:58:40;6.60;;;1.67;;
77612;SDS011;66777;52.282;5.960;2023-03-11T06:01:07;3.75;;;1.15;;
77612;SDS011;66777;52.282;5.960;2023-03-11T06:03:34;4.50;;;1.05;;
77612;SDS011;66777;52.282;5.960;2023-03-11T06:05:59;5.40;;;1.65;;
77612;SDS011;66777;52.282;5.960;2023-03-11T06:08:26;8.52;;;1.23;;
77612;SDS011;66777;52.282;5.960;2023-03-11T06:10:51;2.05;;;0.90;;
77612;SDS011;66777;52.282;5.960;2023-03-11T06:13:17;12.38;;;1.10;;
77612;SDS011;66777;52.282;5.960;2023-03-11T06:15:43;3.30;;;1.20;;
77612;SDS011;66777;52.282;5.960;2023-03-11T06:18:09;4.38;;;1.90;;
77612;SDS011;66777;52.282;5.960;2023-03-11T06:20:35;2.17;;;1.00;;
77612;SDS011;66777;52.282;5.960;2023-03-11T06:23:02;4.88;;;1.38;;
77612;SDS011;66777;52.282;5.960;2023-03-11T06:25:28;4.38;;;2.03;;
77612;SDS011;66777;52.282;5.960;2023-03-11T06:27:54;3.97;;;1.00;;
77612;SDS011;66777;52.282;5.960;2023-03-11T06:30:20;8.68;;;1.15;;
77612;SDS011;66777;52.282;5.960;2023-03-11T06:32:46;6.93;;;1.63;;
77612;SDS011;66777;52.282;5.960;2023-03-11T06:35:12;8.90;;;2.03;;
77612;SDS011;66777;52.282;5.960;2023-03-11T06:37:38;8.90;;;1.52;;
77612;SDS011;66777;52.282;5.960;2023-03-11T06:40:05;3.45;;;1.38;;
77612;SDS011;66777;52.282;5.960;2023-03-11T06:42:33;5.22;;;1.23;;
77612;SDS011;66777;52.282;5.960;2023-03-11T06:45:00;6.28;;;1.67;;
77612;SDS011;66777;52.282;5.960;2023-03-11T06:47:26;3.40;;;1.25;;
77612;SDS011;66777;52.282;5.960;2023-03-11T06:49:52;3.38;;;1.30;;
77612;SDS011;66777;52.282;5.960;2023-03-11T06:52:18;3.83;;;1.30;;
77612;SDS011;66777;52.282;5.960;2023-03-11T06:54:45;2.97;;;1.17;;
77612;SDS011;66777;52.282;5.960;2023-03-11T06:57:11;8.57;;;2.00;;
77612;SDS011;66777;52.282;5.960;2023-03-11T06:59:37;2.15;;;1.02;;
77612;SDS011;66777;52.282;5.960;2023-03-11T07:02:03;4.15;;;0.80;;
77612;SDS011;66777;52.282;5.960;2023-03-11T07:04:30;2.65;;;1.05;;
77612;SDS011;66777;52.282;5.960;2023-03-11T07:06:58;5.50;;;1.30;;
77612;SDS011;66777;52.282;5.960;2023-03-11T07:09:24;2.50;;;1.10;;
77612;SDS011;66777;52.282;5.960;2023-03-11T07:11:51;3.33;;;1.10;;
77612;SDS011;66777;52.282;5.960;2023-03-11T07:14:17;3.00;;;1.00;;
77612;SDS011;66777;52.282;5.960;2023-03-11T07:16:43;2.58;;;1.10;;
77612;SDS011;66777;52.282;5.960;2023-03-11T07:19:10;3.40;;;1.50;;
77612;SDS011;66777;52.282;5.960;2023-03-11T07:21:37;5.93;;;1.27;;
77612;SDS011;66777;52.282;5.960;2023-03-11T07:24:03;5.95;;;1.40;;
77612;SDS011;66777;52.282;5.960;2023-03-11T07:26:31;3.92;;;0.95;;
77612;SDS011;66777;52.282;5.960;2023-03-11T07:28:59;3.40;;;1.02;;
77612;SDS011;66777;52.282;5.960;2023-03-11T07:31:27;2.95;;;0.90;;
77612;SDS011;66777;52.282;5.960;2023-03-11T07:33:56;7.28;;;1.85;;
77612;SDS011;66777;52.282;5.960;2023-03-11T07:36:23;2.90;;;1.10;;
77612;SDS011;66777;52.282;5.960;2023-03-11T07:38:55;10.77;;;1.63;;
77612;SDS011;66777;52.282;5.960;2023-03-11T07:41:27;2.30;;;1.10;;
77612;SDS011;66777;52.282;5.960;2023-03-11T07:43:55;3.13;;;1.17;;
77612;SDS011;66777;52.282;5.960;2023-03-11T07:46:23;4.15;;;1.75;;
77612;SDS011;66777;52.282;5.960;2023-03-11T07:48:51;1.52;;;0.95;;
77612;SDS011;66777;52.282;5.960;2023-03-11T07:51:18;3.83;;;1.33;;
77612;SDS011;66777;52.282;5.960;2023-03-11T07:53:53;2.35;;;1.05;;
77612;SDS011;66777;52.282;5.960;2023-03-11T07:56:21;4.78;;;1.67;;
77612;SDS011;66777;52.282;5.960;2023-03-11T07:58:49;3.83;;;1.60;;
77612;SDS011;66777;52.282;5.960;2023-03-11T08:01:17;4.75;;;1.63;;
77612;SDS011;66777;52.282;5.960;2023-03-11T08:03:45;4.47;;;1.83;;
77612;SDS011;66777;52.282;5.960;2023-03-11T08:06:18;8.27;;;1.50;;
77612;SDS011;66777;52.282;5.960;2023-03-11T08:08:46;7.85;;;1.75;;
77612;SDS011;66777;52.282;5.960;2023-03-11T08:11:16;3.85;;;1.13;;
77612;SDS011;66777;52.282;5.960;2023-03-11T08:13:43;5.50;;;1.75;;
77612;SDS011;66777;52.282;5.960;2023-03-11T08:16:12;3.40;;;1.13;;
77612;SDS011;66777;52.282;5.960;2023-03-11T08:18:40;6.38;;;1.27;;
77612;SDS011;66777;52.282;5.960;2023-03-11T08:21:07;16.55;;;1.58;;
77612;SDS011;66777;52.282;5.960;2023-03-11T08:23:36;4.70;;;1.60;;
77612;SDS011;66777;52.282;5.960;2023-03-11T08:26:06;3.25;;;1.20;;
77612;SDS011;66777;52.282;5.960;2023-03-11T08:28:36;4.80;;;1.52;;
77612;SDS011;66777;52.282;5.960;2023-03-11T08:31:02;6.60;;;1.33;;
77612;SDS011;66777;52.282;5.960;2023-03-11T08:33:36;4.50;;;1.30;;
77612;SDS011;66777;52.282;5.960;2023-03-11T08:36:02;3.00;;;1.23;;
77612;SDS011;66777;52.282;5.960;2023-03-11T08:38:28;10.13;;;1.80;;
77612;SDS011;66777;52.282;5.960;2023-03-11T08:40:54;4.90;;;1.30;;
77612;SDS011;66777;52.282;5.960;2023-03-11T08:43:20;3.72;;;1.38;;
77612;SDS011;66777;52.282;5.960;2023-03-11T08:45:45;3.08;;;1.30;;
77612;SDS011;66777;52.282;5.960;2023-03-11T08:48:11;7.47;;;1.23;;
77612;SDS011;66777;52.282;5.960;2023-03-11T08:50:42;2.60;;;1.05;;
77612;SDS011;66777;52.282;5.960;2023-03-11T08:53:08;4.93;;;1.58;;
77612;SDS011;66777;52.282;5.960;2023-03-11T08:55:34;3.55;;;1.13;;
77612;SDS011;66777;52.282;5.960;2023-03-11T08:58:01;7.35;;;1.33;;
77612;SDS011;66777;52.282;5.960;2023-03-11T09:00:27;3.70;;;1.17;;
77612;SDS011;66777;52.282;5.960;2023-03-11T09:02:53;3.38;;;0.80;;
77612;SDS011;66777;52.282;5.960;2023-03-11T09:05:19;1.60;;;0.80;;
77612;SDS011;66777;52.282;5.960;2023-03-11T09:07:45;2.60;;;1.42;;
77612;SDS011;66777;52.282;5.960;2023-03-11T09:10:14;3.72;;;1.35;;
77612;SDS011;66777;52.282;5.960;2023-03-11T09:12:41;2.85;;;1.25;;
77612;SDS011;66777;52.282;5.960;2023-03-11T09:15:08;6.75;;;1.23;;
77612;SDS011;66777;52.282;5.960;2023-03-11T09:17:34;3.35;;;1.50;;
77612;SDS011;66777;52.282;5.960;2023-03-11T09:20:01;4.50;;;1.42;;
77612;SDS011;66777;52.282;5.960;2023-03-11T09:22:29;2.97;;;1.00;;
77612;SDS011;66777;52.282;5.960;2023-03-11T09:24:55;3.60;;;1.48;;
77612;SDS011;66777;52.282;5.960;2023-03-11T09:27:22;3.47;;;1.00;;
77612;SDS011;66777;52.282;5.960;2023-03-11T09:29:48;5.00;;;1.15;;
77612;SDS011;66777;52.282;5.960;2023-03-11T09:32:14;6.82;;;1.60;;
77612;SDS011;66777;52.282;5.960;2023-03-11T09:34:40;5.55;;;1.80;;
77612;SDS011;66777;52.282;5.960;2023-03-11T09:37:07;6.45;;;1.27;;
77612;SDS011;66777;52.282;5.960;2023-03-11T09:39:33;4.57;;;1.95;;
77612;SDS011;66777;52.282;5.960;2023-03-11T09:42:17;7.28;;;2.00;;
77612;SDS011;66777;52.282;5.960;2023-03-11T09:44:59;3.10;;;1.33;;
77612;SDS011;66777;52.282;5.960;2023-03-11T09:47:30;3.15;;;1.00;;
77612;SDS011;66777;52.282;5.960;2023-03-11T09:58:03;2.20;;;1.05;;
77612;SDS011;66777;52.282;5.960;2023-03-11T10:00:46;6.18;;;1.38;;
77612;SDS011;66777;52.282;5.960;2023-03-11T10:03:20;6.22;;;1.73;;
77612;SDS011;66777;52.282;5.960;2023-03-11T10:05:49;3.38;;;1.15;;
77612;SDS011;66777;52.282;5.960;2023-03-11T10:08:23;4.72;;;1.30;;
77612;SDS011;66777;52.282;5.960;2023-03-11T10:11:11;3.42;;;1.25;;
77612;SDS011;66777;52.282;5.960;2023-03-11T10:13:56;2.88;;;1.05;;
77612;SDS011;66777;52.282;5.960;2023-03-11T10:19:23;2.83;;;0.98;;
77612;SDS011;66777;52.282;5.960;2023-03-11T10:27:01;4.30;;;1.23;;
77612;SDS011;66777;52.282;5.960;2023-03-11T10:32:53;3.63;;;1.48;;
77612;SDS011;66777;52.282;5.960;2023-03-11T10:35:43;5.13;;;1.40;;
77612;SDS011;66777;52.282;5.960;2023-03-11T10:38:17;4.88;;;1.48;;
77612;SDS011;66777;52.282;5.960;2023-03-11T10:40:47;3.08;;;1.13;;
77612;SDS011;66777;52.282;5.960;2023-03-11T10:43:20;3.10;;;1.65;;
77612;SDS011;66777;52.282;5.960;2023-03-11T10:45:56;3.85;;;1.63;;
77612;SDS011;66777;52.282;5.960;2023-03-11T10:48:23;3.20;;;1.30;;
77612;SDS011;66777;52.282;5.960;2023-03-11T10:53:18;4.45;;;2.15;;
77612;SDS011;66777;52.282;5.960;2023-03-11T10:55:49;3.40;;;1.58;;
77612;SDS011;66777;52.282;5.960;2023-03-11T10:58:19;5.57;;;2.08;;
77612;SDS011;66777;52.282;5.960;2023-03-11T11:00:59;7.97;;;2.00;;
77612;SDS011;66777;52.282;5.960;2023-03-11T11:03:25;3.60;;;1.45;;
77612;SDS011;66777;52.282;5.960;2023-03-11T11:06:04;6.53;;;2.03;;
77612;SDS011;66777;52.282;5.960;2023-03-11T11:08:32;5.55;;;1.75;;
77612;SDS011;66777;52.282;5.960;2023-03-11T11:11:02;5.38;;;1.92;;
77612;SDS011;66777;52.282;5.960;2023-03-11T11:13:31;4.07;;;1.63;;
77612;SDS011;66777;52.282;5.960;2023-03-11T11:16:18;4.70;;;1.77;;
77612;SDS011;66777;52.282;5.960;2023-03-11T11:21:13;4.00;;;2.03;;
77612;SDS011;66777;52.282;5.960;2023-03-11T11:26:38;4.90;;;2.63;;
77612;SDS011;66777;52.282;5.960;2023-03-11T11:31:37;7.25;;;2.33;;
77612;SDS011;66777;52.282;5.960;2023-03-11T11:37:03;6.70;;;3.05;;
77612;SDS011;66777;52.282;5.960;2023-03-11T11:43:24;8.05;;;2.95;;
77612;SDS011;66777;52.282;5.960;2023-03-11T11:51:13;6.32;;;3.22;;
77612;SDS011;66777;52.282;5.960;2023-03-11T11:53:51;6.00;;;3.70;;
77612;SDS011;66777;52.282;5.960;2023-03-11T11:56:35;6.30;;;3.33;;
77612;SDS011;66777;52.282;5.960;2023-03-11T11:59:01;5.93;;;2.95;;
77612;SDS011;66777;52.282;5.960;2023-03-11T12:01:33;8.02;;;4.22;;
77612;SDS011;66777;52.282;5.960;2023-03-11T12:04:24;5.25;;;3.22;;
77612;SDS011;66777;52.282;5.960;2023-03-11T12:15:25;8.10;;;7.30;;
77612;SDS011;66777;52.282;5.960;2023-03-11T12:18:02;7.22;;;5.95;;
77612;SDS011;66777;52.282;5.960;2023-03-11T12:20:41;9.55;;;8.75;;
77612;SDS011;66777;52.282;5.960;2023-03-11T12:23:17;8.52;;;7.75;;
77612;SDS011;66777;52.282;5.960;2023-03-11T12:25:56;8.10;;;7.40;;
77612;SDS011;66777;52.282;5.960;2023-03-11T12:28:53;9.90;;;9.18;;
77612;SDS011;66777;52.282;5.960;2023-03-11T12:31:29;11.43;;;10.68;;
77612;SDS011;66777;52.282;5.960;2023-03-11T12:34:03;11.18;;;10.18;;
77612;SDS011;66777;52.282;5.960;2023-03-11T12:36:36;10.93;;;10.13;;
77612;SDS011;66777;52.282;5.960;2023-03-11T12:39:07;13.15;;;12.25;;
77612;SDS011;66777;52.282;5.960;2023-03-11T12:44:39;12.95;;;12.02;;
77612;SDS011;66777;52.282;5.960;2023-03-11T12:47:18;15.43;;;14.40;;
77612;SDS011;66777;52.282;5.960;2023-03-11T12:49:46;14.57;;;13.63;;
77612;SDS011;66777;52.282;5.960;2023-03-11T12:52:16;18.48;;;17.38;;
77612;SDS011;66777;52.282;5.960;2023-03-11T12:54:47;17.42;;;16.48;;
77612;SDS011;66777;52.282;5.960;2023-03-11T13:03:04;16.60;;;15.40;;
77612;SDS011;66777;52.282;5.960;2023-03-11T13:08:48;15.23;;;14.40;;
77612;SDS011;66777;52.282;5.960;2023-03-11T13:16:55;16.85;;;15.77;;
77612;SDS011;66777;52.282;5.960;2023-03-11T13:19:46;18.80;;;17.50;;
77612;SDS011;66777;52.282;5.960;2023-03-11T13:28:18;20.48;;;19.45;;
77612;SDS011;66777;52.282;5.960;2023-03-11T13:33:54;17.83;;;16.73;;
77612;SDS011;66777;52.282;5.960;2023-03-11T13:39:13;18.15;;;17.15;;
77612;SDS011;66777;52.282;5.960;2023-03-11T13:41:58;22.27;;;21.25;;
77612;SDS011;66777;52.282;5.960;2023-03-11T13:44:34;19.83;;;18.70;;
77612;SDS011;66777;52.282;5.960;2023-03-11T13:47:04;19.70;;;18.60;;
77612;SDS011;66777;52.282;5.960;2023-03-11T13:52:35;15.95;;;15.00;;
77612;SDS011;66777;52.282;5.960;2023-03-11T13:55:11;18.10;;;17.10;;
77612;SDS011;66777;52.282;5.960;2023-03-11T13:57:49;13.57;;;12.63;;
77612;SDS011;66777;52.282;5.960;2023-03-11T14:00:20;11.77;;;10.80;;
77612;SDS011;66777;52.282;5.960;2023-03-11T14:02:53;10.52;;;9.75;;
77612;SDS011;66777;52.282;5.960;2023-03-11T14:05:25;10.25;;;9.18;;
77612;SDS011;66777;52.282;5.960;2023-03-11T14:07:52;7.90;;;7.30;;
77612;SDS011;66777;52.282;5.960;2023-03-11T14:10:26;5.93;;;5.32;;
77612;SDS011;66777;52.282;5.960;2023-03-11T14:13:03;6.28;;;5.30;;
77612;SDS011;66777;52.282;5.960;2023-03-11T14:15:42;6.28;;;4.72;;
77612;SDS011;66777;52.282;5.960;2023-03-11T14:21:10;6.03;;;5.40;;
77612;SDS011;66777;52.282;5.960;2023-03-11T14:23:40;5.25;;;3.63;;
77612;SDS011;66777;52.282;5.960;2023-03-11T14:26:12;5.35;;;2.95;;
77612;SDS011;66777;52.282;5.960;2023-03-11T14:28:45;6.10;;;3.95;;
77612;SDS011;66777;52.282;5.960;2023-03-11T14:31:21;6.40;;;3.28;;
77612;SDS011;66777;52.282;5.960;2023-03-11T14:34:00;5.88;;;3.83;;
77612;SDS011;66777;52.282;5.960;2023-03-11T14:36:45;4.63;;;2.75;;
77612;SDS011;66777;52.282;5.960;2023-03-11T14:39:30;5.35;;;4.35;;
77612;SDS011;66777;52.282;5.960;2023-03-11T14:42:12;5.53;;;2.67;;
77612;SDS011;66777;52.282;5.960;2023-03-11T14:44:46;5.45;;;2.10;;
77612;SDS011;66777;52.282;5.960;2023-03-11T14:49:57;4.07;;;2.67;;
77612;SDS011;66777;52.282;5.960;2023-03-11T14:52:34;5.57;;;2.92;;
77612;SDS011;66777;52.282;5.960;2023-03-11T14:55:25;3.75;;;2.35;;
77612;SDS011;66777;52.282;5.960;2023-03-11T15:00:36;6.50;;;2.28;;
77612;SDS011;66777;52.282;5.960;2023-03-11T15:03:12;5.45;;;2.08;;
77612;SDS011;66777;52.282;5.960;2023-03-11T15:05:51;5.85;;;2.15;;
77612;SDS011;66777;52.282;5.960;2023-03-11T15:08:45;5.95;;;2.33;;
77612;SDS011;66777;52.282;5.960;2023-03-11T15:11:24;3.70;;;1.83;;
77612;SDS011;66777;52.282;5.960;2023-03-11T15:13:53;3.85;;;2.28;;
77612;SDS011;66777;52.282;5.960;2023-03-11T15:16:34;5.18;;;2.35;;
77612;SDS011;66777;52.282;5.960;2023-03-11T15:19:02;5.55;;;2.38;;
77612;SDS011;66777;52.282;5.960;2023-03-11T15:21:45;5.70;;;2.25;;
77612;SDS011;66777;52.282;5.960;2023-03-11T15:24:17;7.07;;;2.78;;
77612;SDS011;66777;52.282;5.960;2023-03-11T15:27:07;4.82;;;2.38;;
77612;SDS011;66777;52.282;5.960;2023-03-11T15:29:48;5.40;;;3.13;;
77612;SDS011;66777;52.282;5.960;2023-03-11T15:37:39;5.32;;;2.92;;
77612;SDS011;66777;52.282;5.960;2023-03-11T15:43:06;4.20;;;2.25;;
77612;SDS011;66777;52.282;5.960;2023-03-11T15:45:50;3.63;;;1.77;;
77612;SDS011;66777;52.282;5.960;2023-03-11T15:48:18;4.72;;;1.73;;
77612;SDS011;66777;52.282;5.960;2023-03-11T15:50:49;3.53;;;1.80;;
77612;SDS011;66777;52.282;5.960;2023-03-11T15:53:17;5.38;;;1.92;;
77612;SDS011;66777;52.282;5.960;2023-03-11T15:55:44;6.53;;;2.08;;
77612;SDS011;66777;52.282;5.960;2023-03-11T15:58:13;4.80;;;1.85;;
77612;SDS011;66777;52.282;5.960;2023-03-11T16:00:41;6.00;;;1.88;;
77612;SDS011;66777;52.282;5.960;2023-03-11T16:03:12;5.78;;;1.65;;
77612;SDS011;66777;52.282;5.960;2023-03-11T16:05:39;3.45;;;1.73;;
77612;SDS011;66777;52.282;5.960;2023-03-11T16:08:05;3.63;;;1.40;;
77612;SDS011;66777;52.282;5.960;2023-03-11T16:10:32;2.80;;;1.15;;
77612;SDS011;66777;52.282;5.960;2023-03-11T16:12:58;3.72;;;1.65;;
77612;SDS011;66777;52.282;5.960;2023-03-11T16:15:28;4.78;;;1.73;;
77612;SDS011;66777;52.282;5.960;2023-03-11T16:17:57;3.22;;;1.58;;
77612;SDS011;66777;52.282;5.960;2023-03-11T16:20:25;4.55;;;1.63;;
77612;SDS011;66777;52.282;5.960;2023-03-11T16:22:55;4.65;;;1.55;;
77612;SDS011;66777;52.282;5.960;2023-03-11T16:25:24;2.58;;;1.42;;
77612;SDS011;66777;52.282;5.960;2023-03-11T16:27:55;2.78;;;1.15;;
77612;SDS011;66777;52.282;5.960;2023-03-11T16:30:22;6.70;;;1.98;;
77612;SDS011;66777;52.282;5.960;2023-03-11T16:32:48;3.63;;;1.50;;
77612;SDS011;66777;52.282;5.960;2023-03-11T16:35:14;5.15;;;1.67;;
77612;SDS011;66777;52.282;5.960;2023-03-11T16:37:41;3.95;;;1.33;;
77612;SDS011;66777;52.282;5.960;2023-03-11T16:40:15;3.85;;;1.50;;
77612;SDS011;66777;52.282;5.960;2023-03-11T16:42:44;2.85;;;1.15;;
77612;SDS011;66777;52.282;5.960;2023-03-11T16:45:14;3.17;;;1.25;;